Time;durP1;ratioP1;P1;durP2;ratioP2;P2;SDS_P1;SDS_P2;PMS_P1;PMS_P2;Temp;Humidity;BMP_temperature;BMP_pressure;BME280_temperature;BME280_humidity;BME280_pressure;Samples;Min_cycle;Max_cycle;Signal;HPM_P1;HPM_P2
2022/06/13 00:01:27;;;;;;;3.47;2.58;;;;;;;17.50;63.32;93853.63;5009197;28;20492;-74
2022/06/13 00:03:53;;;;;;;3.40;2.70;;;;;;;17.45;63.60;93848.53;5010917;28;20100;-74
2022/06/13 00:06:18;;;;;;;3.50;2.72;;;;;;;17.30;63.69;93841.31;5010822;28;20040;-74
2022/06/13 00:08:44;;;;;;;3.00;2.22;;;;;;;17.39;63.74;93844.56;5007963;28;20029;-75
2022/06/13 00:11:14;;;;;;;4.97;2.90;;;;;;;17.33;63.57;93843.28;5011205;28;20128;-75
2022/06/13 00:13:44;;;;;;;3.33;2.60;;;;;;;17.34;63.71;93842.16;5010141;28;20121;-75
2022/06/13 00:16:11;;;;;;;3.42;2.22;;;;;;;17.38;63.56;93845.69;5011522;28;20380;-75
2022/06/13 00:18:37;;;;;;;5.35;2.70;;;;;;;17.37;63.55;93842.22;5009282;28;20609;-74
2022/06/13 00:21:04;;;;;;;5.90;2.53;;;;;;;17.37;63.75;93854.88;5009628;28;20030;-74
2022/06/13 00:23:30;;;;;;;3.42;2.38;;;;;;;17.29;64.04;93856.66;5009432;28;20042;-74
2022/06/13 00:25:55;;;;;;;3.65;2.65;;;;;;;17.27;64.34;93855.44;5009981;28;20041;-75
2022/06/13 00:28:21;;;;;;;5.45;3.00;;;;;;;17.34;63.91;93863.66;5008836;28;20030;-74
2022/06/13 00:30:46;;;;;;;3.53;2.83;;;;;;;17.25;64.32;93863.09;5011289;28;20025;-75
2022/06/13 00:33:11;;;;;;;3.83;2.47;;;;;;;17.15;64.13;93851.78;5007329;28;20094;-74
2022/06/13 00:35:37;;;;;;;3.42;2.42;;;;;;;17.26;63.64;93857.34;5008905;28;20640;-74
2022/06/13 00:38:02;;;;;;;3.70;2.08;;;;;;;17.20;63.74;93853.41;5011088;28;20508;-75
2022/06/13 00:40:31;;;;;;;3.42;2.45;;;;;;;17.02;63.65;93828.81;5010015;28;20422;-73
2022/06/13 00:42:57;;;;;;;3.85;2.17;;;;;;;17.30;64.21;93873.56;5010382;28;20502;-75
2022/06/13 00:45:25;;;;;;;3.40;2.20;;;;;;;17.29;64.03;93877.38;5007545;28;20350;-74
2022/06/13 00:47:53;;;;;;;5.95;2.33;;;;;;;17.22;64.37;93855.72;5008649;28;20076;-74
2022/06/13 00:50:27;;;;;;;3.13;2.13;;;;;;;17.28;64.15;93865.06;5009347;28;20036;-75
2022/06/13 00:53:00;;;;;;;4.55;2.88;;;;;;;17.24;64.36;93869.59;5009983;28;20125;-74
2022/06/13 00:55:51;;;;;;;4.97;2.70;;;;;;;17.12;64.41;93846.28;5008967;28;20676;-74
2022/06/13 00:58:17;;;;;;;3.00;2.20;;;;;;;17.09;64.65;93847.78;5010577;28;20443;-73
2022/06/13 01:00:50;;;;;;;3.72;2.75;;;;;;;17.20;64.48;93858.00;5012900;28;20068;-74
2022/06/13 01:03:16;;;;;;;3.67;2.40;;;;;;;17.17;64.77;93859.47;5008210;28;20396;-75
2022/06/13 01:05:45;;;;;;;4.07;2.33;;;;;;;17.04;64.39;93834.63;5006550;28;20307;-72
2022/06/13 01:08:12;;;;;;;3.67;2.38;;;;;;;17.12;64.15;93836.31;5008498;28;20065;-75
2022/06/13 01:13:44;;;;;;;2.88;2.30;;;;;;;17.11;64.45;93856.25;5007864;28;20037;-75
2022/06/13 01:16:37;;;;;;;5.22;2.47;;;;;;;17.25;64.05;93847.75;5009764;28;20029;-75
2022/06/13 01:19:25;;;;;;;5.00;2.15;;;;;;;17.16;64.35;93849.84;5009213;28;20048;-74
2022/06/13 01:22:14;;;;;;;5.00;2.42;;;;;;;17.07;64.41;93831.22;5007850;28;20420;-74
2022/06/13 01:24:52;;;;;;;4.55;3.10;;;;;;;17.14;64.66;93849.44;5009805;28;20046;-74
2022/06/13 01:28:03;;;;;;;3.60;2.55;;;;;;;17.21;64.48;93849.56;5009831;28;20062;-75
2022/06/13 01:30:31;;;;;;;3.33;2.65;;;;;;;17.14;64.73;93839.47;5008386;28;20041;-74
2022/06/13 01:33:15;;;;;;;3.42;2.72;;;;;;;17.15;64.84;93840.25;5009764;28;20077;-75
2022/06/13 01:36:16;;;;;;;3.03;2.50;;;;;;;17.17;64.61;93838.75;5007869;28;20042;-74
2022/06/13 01:39:18;;;;;;;2.97;1.95;;;;;;;17.16;64.06;93837.19;4995334;28;20041;-73
2022/06/13 01:41:59;;;;;;;4.63;2.90;;;;;;;17.16;64.13;93847.16;5004758;28;20042;-75
2022/06/13 01:44:24;;;;;;;3.50;2.53;;;;;;;17.11;64.46;93845.50;5009769;28;20034;-74
2022/06/13 01:47:00;;;;;;;3.80;2.70;;;;;;;17.09;64.67;93849.69;5007147;28;20033;-75
2022/06/13 01:49:44;;;;;;;3.03;2.50;;;;;;;17.09;64.86;93858.53;5024221;28;20037;-74
2022/06/13 01:52:25;;;;;;;4.40;2.42;;;;;;;17.06;64.05;93853.09;5007244;28;20500;-74
2022/06/13 01:54:54;;;;;;;4.63;2.00;;;;;;;17.11;64.20;93863.56;5005817;28;20022;-76
2022/06/13 01:57:28;;;;;;;2.22;2.03;;;;;;;17.01;64.33;93851.44;5007220;28;20037;-75
2022/06/13 02:00:03;;;;;;;2.97;2.53;;;;;;;17.11;64.53;93863.56;5006995;28;20046;-75
2022/06/13 02:02:45;;;;;;;4.13;2.67;;;;;;;17.12;64.69;93857.81;5007273;28;20052;-75
2022/06/13 02:05:35;;;;;;;3.40;2.63;;;;;;;17.10;64.56;93849.34;5007635;28;20135;-74
2022/06/13 02:08:08;;;;;;;5.82;2.85;;;;;;;17.07;64.83;93849.25;5007360;28;20502;-75
2022/06/13 02:10:39;;;;;;;4.28;2.45;;;;;;;17.05;64.93;93860.38;5008478;28;20030;-74
2022/06/13 02:13:13;;;;;;;3.08;2.55;;;;;;;17.06;64.95;93864.59;5007601;28;20483;-76
2022/06/13 02:15:45;;;;;;;5.45;3.20;;;;;;;17.06;64.80;93869.22;5005123;28;20037;-74
2022/06/13 02:18:19;;;;;;;5.90;2.50;;;;;;;17.03;64.67;93868.00;5005368;28;20077;-75
2022/06/13 02:20:49;;;;;;;3.15;2.20;;;;;;;17.04;64.11;93866.88;5006959;28;20037;-74
2022/06/13 02:23:25;;;;;;;3.38;2.88;;;;;;;16.87;64.07;93836.91;5005510;28;20700;-75
2022/06/13 02:26:00;;;;;;;4.13;2.65;;;;;;;16.74;65.06;93852.38;5007642;28;20444;-75
2022/06/13 02:28:37;;;;;;;6.40;3.15;;;;;;;16.89;65.83;93870.38;5007373;28;20115;-74
2022/06/13 02:31:07;;;;;;;5.07;2.50;;;;;;;16.87;65.15;93851.13;5014928;28;20391;-74
2022/06/13 02:33:42;;;;;;;5.28;2.70;;;;;;;17.01;64.73;93866.81;5010252;28;20143;-74
2022/06/13 02:36:12;;;;;;;;;;;;;;;16.99;64.75;93867.13;5005523;28;20537;-75
2022/06/13 02:38:46;;;;;;;2.75;2.33;;;;;;;16.99;64.91;93877.88;5007742;28;19917;-75
2022/06/13 02:41:19;;;;;;;3.95;2.75;;;;;;;17.05;64.61;93862.28;5004249;28;20449;-74
2022/06/13 02:43:54;;;;;;;2.90;2.10;;;;;;;16.97;64.10;93850.59;5008257;28;20414;-73
2022/06/13 02:46:31;;;;;;;3.63;2.95;;;;;;;17.00;64.47;93866.03;5006510;28;20029;-75
2022/06/13 02:49:38;;;;;;;3.75;2.42;;;;;;;17.02;64.54;93869.13;5009153;28;20029;-74
2022/06/13 02:52:29;;;;;;;3.72;2.30;;;;;;;16.95;64.72;93868.19;5013055;28;20124;-75
2022/06/13 02:54:59;;;;;;;3.42;2.58;;;;;;;16.91;65.25;93868.13;4999309;28;20495;-74
2022/06/13 02:57:43;;;;;;;2.88;2.28;;;;;;;16.89;65.35;93870.38;5005585;28;20614;-75
2022/06/13 03:00:19;;;;;;;4.28;2.47;;;;;;;16.86;65.36;93863.03;5008772;28;20393;-75
2022/06/13 03:03:00;;;;;;;4.82;2.53;;;;;;;17.00;65.03;93871.38;5007058;28;20050;-74
2022/06/13 03:05:35;;;;;;;3.38;2.30;;;;;;;16.97;65.21;93865.91;5010489;28;20072;-73
2022/06/13 03:08:03;;;;;;;;;;;;;;;16.97;65.05;93874.75;5010579;28;20119;-75
2022/06/13 03:10:40;;;;;;;3.03;2.47;;;;;;;16.95;65.08;93868.97;5017007;28;20506;-74
2022/06/13 03:13:25;;;;;;;4.50;2.15;;;;;;;16.98;65.19;93875.53;5012763;28;20025;-74
2022/06/13 03:16:07;;;;;;;3.47;2.28;;;;;;;17.00;65.37;93876.75;5001496;28;20060;-74
2022/06/13 03:18:45;;;;;;;3.17;2.50;;;;;;;17.01;65.50;93874.84;5010674;28;20560;-74
2022/06/13 03:21:14;;;;;;;3.38;2.60;;;;;;;17.04;65.20;93891.03;5012162;28;20061;-76
2022/06/13 03:24:04;;;;;;;4.72;2.58;;;;;;;17.06;65.56;93888.78;5012485;28;20048;-75
2022/06/13 03:26:37;;;;;;;4.00;2.72;;;;;;;17.08;65.74;93893.81;5009801;28;20607;-76
2022/06/13 03:29:10;;;;;;;3.00;2.70;;;;;;;16.98;65.90;93880.91;5026176;28;20064;-75
2022/06/13 03:31:45;;;;;;;3.13;2.05;;;;;;;17.02;66.33;93895.97;5010289;28;20033;-75
2022/06/13 03:34:20;;;;;;;7.90;2.50;;;;;;;17.07;66.38;93900.31;5010123;28;20396;-74
2022/06/13 03:37:04;;;;;;;5.25;2.50;;;;;;;17.16;66.52;93890.16;5009681;28;20587;-76
2022/06/13 03:39:39;;;;;;;3.00;2.53;;;;;;;17.16;66.65;93890.94;5010905;28;20038;-76
2022/06/13 03:42:12;;;;;;;4.20;3.13;;;;;;;17.28;66.56;93902.69;5010713;28;20022;-77
2022/06/13 03:44:50;;;;;;;3.05;2.58;;;;;;;17.34;66.67;93912.81;5008176;28;20033;-76
2022/06/13 03:47:34;;;;;;;3.63;2.28;;;;;;;17.40;66.38;93897.97;5010064;28;20111;-74
2022/06/13 03:50:36;;;;;;;2.67;1.98;;;;;;;17.48;66.42;93906.94;5011017;28;20030;-75
2022/06/13 03:53:08;;;;;;;4.00;2.30;;;;;;;17.48;66.68;93905.03;5010132;28;20083;-76
2022/06/13 03:55:39;;;;;;;3.13;2.50;;;;;;;17.50;66.97;93893.94;5010503;28;20040;-77
2022/06/13 03:58:12;;;;;;;4.85;2.83;;;;;;;17.22;66.66;93836.91;5012020;28;20029;-75
2022/06/13 04:00:44;;;;;;;4.65;3.00;;;;;;;17.73;66.85;93912.81;5008330;28;20045;-76
2022/06/13 04:03:10;;;;;;;3.58;2.60;;;;;;;17.74;66.76;93917.06;5010456;28;20041;-76
2022/06/13 04:05:42;;;;;;;3.75;2.70;;;;;;;17.78;67.40;93917.91;5008048;28;20038;-76
2022/06/13 04:08:11;;;;;;;3.72;2.70;;;;;;;17.83;66.84;93899.56;5010258;28;20519;-76
2022/06/13 04:11:05;;;;;;;6.43;3.50;;;;;;;17.98;66.81;93920.25;5008579;28;20913;-76
2022/06/13 04:14:01;;;;;;;4.88;3.38;;;;;;;18.07;66.73;93908.47;5009445;28;20056;-76
2022/06/13 04:16:37;;;;;;;4.05;3.22;;;;;;;18.07;67.12;93903.09;5009537;28;20280;-73
2022/06/13 04:19:05;;;;;;;4.38;3.03;;;;;;;18.08;66.80;93915.44;5011848;28;20045;-74
2022/06/13 04:21:41;;;;;;;7.25;4.03;;;;;;;18.04;67.18;93913.44;5009837;28;20358;-76
2022/06/13 04:24:38;;;;;;;4.53;3.92;;;;;;;18.04;67.23;93901.88;5009412;28;20084;-76
2022/06/13 04:27:29;;;;;;;5.70;3.80;;;;;;;18.08;66.91;93910.81;5009478;28;20030;-75
2022/06/13 04:30:20;;;;;;;6.90;3.90;;;;;;;18.15;66.93;93905.53;5004033;28;21314;-74
2022/06/13 04:32:45;;;;;;;5.07;4.20;;;;;;;18.17;67.22;93894.44;5012115;28;20038;-75
2022/06/13 04:35:11;;;;;;;10.68;3.67;;;;;;;18.10;67.23;93878.94;5010466;28;20087;-76
2022/06/13 04:37:39;;;;;;;4.47;3.35;;;;;;;18.11;66.95;93879.72;5008248;28;20400;-75
2022/06/13 04:40:08;;;;;;;4.65;3.88;;;;;;;18.00;66.18;93848.00;5009774;28;20025;-75
2022/06/13 04:42:38;;;;;;;5.88;3.88;;;;;;;18.34;67.36;93899.31;5008655;28;20133;-75
2022/06/13 04:45:19;;;;;;;5.18;3.38;;;;;;;18.33;66.28;93868.19;5007409;28;20076;-76
2022/06/13 04:47:46;;;;;;;7.63;4.88;;;;;;;18.30;67.03;93887.72;5009327;28;20050;-76
2022/06/13 04:50:16;;;;;;;8.55;4.93;;;;;;;18.47;67.10;93892.63;4998097;28;20030;-75
2022/06/13 04:52:46;;;;;;;8.30;4.63;;;;;;;18.65;66.74;93899.06;5003963;28;20431;-75
2022/06/13 04:55:45;;;;;;;6.32;4.22;;;;;;;18.64;65.94;93897.50;4990827;28;20033;-76
2022/06/13 04:58:32;;;;;;;7.88;4.75;;;;;;;18.83;65.39;93894.75;4992498;28;20069;-76
2022/06/13 05:01:06;;;;;;;4.97;4.03;;;;;;;18.78;65.87;93886.97;5010604;28;20025;-74
2022/06/13 05:03:37;;;;;;;7.03;5.07;;;;;;;18.78;65.80;93889.66;5008341;28;20077;-74
2022/06/13 05:06:13;;;;;;;7.32;4.35;;;;;;;18.88;65.77;93896.34;5009213;28;20025;-76
2022/06/13 05:08:40;;;;;;;6.25;4.93;;;;;;;18.93;65.35;93895.25;5008353;28;20033;-76
2022/06/13 05:11:11;;;;;;;7.80;4.70;;;;;;;18.82;65.42;93893.19;5008492;28;20057;-74
2022/06/13 05:13:36;;;;;;;5.53;4.20;;;;;;;18.82;65.42;93877.03;5008818;28;20069;-76
2022/06/13 05:16:16;;;;;;;6.10;4.50;;;;;;;18.94;65.58;93886.03;5006860;28;20084;-76
2022/06/13 05:18:57;;;;;;;7.25;5.47;;;;;;;19.07;65.91;93887.38;5007378;28;20064;-75
2022/06/13 05:21:46;;;;;;;8.10;4.63;;;;;;;19.05;64.54;93897.75;5005818;28;20084;-76
2022/06/13 05:24:30;;;;;;;6.65;4.10;;;;;;;19.02;65.71;93885.78;5005627;28;20052;-76
2022/06/13 05:26:55;;;;;;;7.65;5.43;;;;;;;18.99;65.26;93877.66;5006512;28;20250;-76
2022/06/13 05:29:21;;;;;;;9.23;5.35;;;;;;;19.07;65.06;93881.97;5007919;28;20029;-76
2022/06/13 05:31:46;;;;;;;8.98;4.97;;;;;;;19.01;65.90;93876.16;5005683;28;20042;-75
2022/06/13 05:34:24;;;;;;;8.18;5.30;;;;;;;19.17;65.57;93892.13;5007518;28;20146;-76
2022/06/13 05:36:49;;;;;;;8.00;6.22;;;;;;;19.07;66.07;93892.75;5008110;28;20325;-74
2022/06/13 05:39:15;;;;;;;10.05;5.32;;;;;;;19.01;66.41;93861.91;5005948;28;20041;-75
2022/06/13 05:41:40;;;;;;;6.82;4.75;;;;;;;19.34;66.71;93891.59;5003181;28;20484;-75
2022/06/13 05:44:06;;;;;;;5.55;4.47;;;;;;;19.39;65.19;93872.41;5006100;28;20041;-76
2022/06/13 05:46:34;;;;;;;7.45;5.45;;;;;;;19.61;62.81;93890.41;5007124;28;20033;-75
2022/06/13 05:49:00;;;;;;;6.47;4.80;;;;;;;19.73;64.26;93892.88;5004809;28;20026;-76
2022/06/13 05:51:26;;;;;;;7.25;4.30;;;;;;;19.88;64.47;93888.41;5006301;28;20037;-76
2022/06/13 05:53:52;;;;;;;6.28;4.70;;;;;;;19.74;61.77;93897.13;5008647;28;20527;-76
2022/06/13 05:56:20;;;;;;;7.28;4.68;;;;;;;19.67;62.16;93878.16;5002898;28;20033;-75
2022/06/13 05:58:45;;;;;;;6.78;5.20;;;;;;;19.67;63.01;93867.38;5004604;28;20137;-74
2022/06/13 06:01:14;;;;;;;8.80;4.40;;;;;;;19.77;63.42;93892.13;5008014;28;20029;-76
2022/06/13 06:03:41;;;;;;;7.82;5.05;;;;;;;19.54;64.81;93862.59;5007700;28;20129;-75
2022/06/13 06:06:08;;;;;;;7.03;4.90;;;;;;;19.79;63.95;93897.94;5006739;28;20044;-76
2022/06/13 06:08:36;;;;;;;6.68;4.53;;;;;;;19.84;62.36;93895.69;5006088;28;20075;-76
2022/06/13 06:11:02;;;;;;;8.27;5.05;;;;;;;19.58;62.45;93852.63;5006729;28;20195;-76
2022/06/13 06:13:29;;;;;;;6.85;4.30;;;;;;;19.86;62.11;93887.22;5007274;28;20119;-75
2022/06/13 06:15:57;;;;;;;8.18;4.32;;;;;;;20.05;61.34;93908.63;5008498;28;20021;-76
2022/06/13 06:18:24;;;;;;;13.13;5.03;;;;;;;20.04;61.83;93899.00;5008991;28;20038;-76
2022/06/13 06:20:50;;;;;;;6.65;4.15;;;;;;;19.99;61.55;93899.31;5006869;28;20438;-76
2022/06/13 06:23:16;;;;;;;6.88;4.80;;;;;;;19.78;61.67;93855.91;5007488;28;20065;-76
2022/06/13 06:25:43;;;;;;;7.05;4.10;;;;;;;20.12;60.83;93909.50;5005899;28;20037;-73
2022/06/13 06:28:15;;;;;;;5.65;3.75;;;;;;;19.85;60.73;93904.56;5006535;28;20542;-76
2022/06/13 06:30:40;;;;;;;7.97;4.68;;;;;;;19.96;61.76;93916.25;5005074;28;20141;-76
2022/06/13 06:33:06;;;;;;;9.60;4.65;;;;;;;19.70;62.77;93901.69;5003608;28;20050;-76
2022/06/13 06:35:34;;;;;;;7.82;3.85;;;;;;;19.95;60.73;93914.69;5007218;28;20511;-76
2022/06/13 06:37:59;;;;;;;4.63;3.85;;;;;;;20.08;58.73;93910.59;5008019;28;20136;-76
2022/06/13 06:40:26;;;;;;;4.63;3.28;;;;;;;20.20;59.18;93915.75;5010933;28;20100;-75
2022/06/13 06:42:52;;;;;;;5.13;4.10;;;;;;;19.81;61.08;93915.31;5011044;28;20037;-76
2022/06/13 06:45:17;;;;;;;8.27;4.30;;;;;;;19.89;61.81;93911.56;5011332;28;20036;-76
2022/06/13 06:47:43;;;;;;;5.38;4.00;;;;;;;20.03;60.66;93916.31;5009773;28;20037;-76
2022/06/13 06:50:15;;;;;;;6.15;3.85;;;;;;;20.03;61.51;93905.53;5012283;28;20041;-75
2022/06/13 06:52:41;;;;;;;6.78;4.13;;;;;;;19.80;62.00;93907.59;5012750;28;20037;-76
2022/06/13 07:00:39;;;;;;;3.55;3.05;;;;;;;20.15;57.88;93914.13;5010468;28;20049;-76
2022/06/13 07:03:05;;;;;;;5.22;3.35;;;;;;;20.31;57.37;93905.84;5012268;28;20041;-76
2022/06/13 07:05:30;;;;;;;6.18;3.20;;;;;;;20.60;56.23;93914.97;5010513;28;20057;-75
2022/06/13 07:07:55;;;;;;;4.43;2.70;;;;;;;20.80;55.56;93908.16;5009399;28;20495;-76
2022/06/13 07:10:21;;;;;;;6.38;3.38;;;;;;;20.85;55.51;93907.81;5011366;28;20025;-76
2022/06/13 07:12:46;;;;;;;3.28;2.72;;;;;;;20.82;55.24;93902.41;5010544;28;20380;-76
2022/06/13 07:15:14;;;;;;;3.70;3.08;;;;;;;21.01;53.97;93910.28;5011827;28;20034;-76
2022/06/13 07:17:40;;;;;;;4.00;2.95;;;;;;;21.03;53.99;93897.16;5009424;28;20465;-76
2022/06/13 07:20:06;;;;;;;3.35;2.53;;;;;;;20.79;54.24;93903.13;5007019;28;20042;-76
2022/06/13 07:22:31;;;;;;;4.80;3.65;;;;;;;20.43;55.89;93913.66;5007509;28;20135;-75
2022/06/13 07:24:56;;;;;;;3.92;2.85;;;;;;;20.48;56.84;93916.00;5009705;28;20029;-76
2022/06/13 07:27:22;;;;;;;4.57;3.53;;;;;;;20.58;56.37;93909.91;5009619;28;20095;-76
2022/06/13 07:29:47;;;;;;;5.07;3.50;;;;;;;20.95;55.81;93911.78;5008697;28;20034;-74
2022/06/13 07:32:23;;;;;;;4.47;2.97;;;;;;;21.21;54.32;93914.28;5008728;28;20041;-76
2022/06/13 07:34:52;;;;;;;8.40;3.35;;;;;;;21.12;55.02;93913.06;5007087;28;20471;-76
2022/06/13 07:40:08;;;;;;;5.10;2.97;;;;;;;20.60;55.90;93912.25;5009802;28;20037;-75
2022/06/13 07:42:43;;;;;;;3.95;3.30;;;;;;;20.65;55.80;93917.31;5010920;28;20351;-76
2022/06/13 07:45:16;;;;;;;10.18;3.40;;;;;;;20.88;56.32;93898.19;5009431;28;20232;-76
2022/06/13 07:47:42;;;;;;;3.25;2.95;;;;;;;20.96;56.00;93913.34;5025596;28;20056;-74
2022/06/13 07:50:13;;;;;;;4.60;3.30;;;;;;;21.18;55.58;93920.41;5007481;28;20037;-76
2022/06/13 07:52:39;;;;;;;4.22;3.60;;;;;;;21.40;54.27;93911.28;5010806;28;20488;-76
2022/06/13 07:55:04;;;;;;;5.63;3.42;;;;;;;21.24;55.04;93918.13;5011341;28;20065;-76
2022/06/13 07:57:30;;;;;;;6.25;3.72;;;;;;;21.43;54.53;93915.94;5008881;28;20436;-76
2022/06/13 07:59:56;;;;;;;5.72;4.18;;;;;;;20.94;54.68;93892.06;5010418;28;20034;-76
2022/06/13 08:02:30;;;;;;;6.53;3.88;;;;;;;21.18;55.81;93904.19;5006639;28;20500;-76
2022/06/13 08:04:55;;;;;;;6.57;3.87;;;;;;;20.99;54.60;93901.75;5023205;28;20095;-76
2022/06/13 08:07:21;;;;;;;5.90;3.75;;;;;;;20.82;56.65;93875.38;5007401;28;20275;-76
2022/06/13 08:09:47;;;;;;;7.10;3.47;;;;;;;20.98;55.14;93913.72;5014965;28;20495;-75
2022/06/13 08:12:14;;;;;;;4.38;3.92;;;;;;;20.79;56.02;93919.34;5010196;28;20057;-76
2022/06/13 08:14:45;;;;;;;5.22;3.85;;;;;;;21.15;55.67;93913.06;5009592;28;20041;-76
2022/06/13 08:17:15;;;;;;;5.38;4.22;;;;;;;21.14;56.22;93906.09;5009406;28;20034;-76
2022/06/13 08:19:40;;;;;;;4.97;4.18;;;;;;;21.01;57.51;93915.69;5007783;28;20033;-76
2022/06/13 08:22:06;;;;;;;4.80;3.33;;;;;;;20.88;55.92;93895.50;5008584;28;20053;-75
2022/06/13 08:24:32;;;;;;;5.45;3.78;;;;;;;20.80;54.78;93904.69;5005308;28;20751;-75
2022/06/13 08:26:57;;;;;;;5.57;4.55;;;;;;;20.81;55.96;93906.25;5007707;28;20482;-75
2022/06/13 08:29:22;;;;;;;6.35;3.80;;;;;;;21.10;55.81;93905.31;5007976;28;20038;-76
2022/06/13 08:31:48;;;;;;;4.95;3.65;;;;;;;21.08;52.65;93923.84;5006838;28;20033;-76
2022/06/13 08:34:13;;;;;;;7.57;3.70;;;;;;;20.94;53.21;93883.19;5008356;28;20120;-76
2022/06/13 08:36:38;;;;;;;5.28;3.90;;;;;;;21.03;54.37;93921.47;5009686;28;20529;-76
2022/06/13 08:39:05;;;;;;;5.43;3.72;;;;;;;20.94;53.17;93912.94;5005062;28;20049;-75
2022/06/13 08:41:52;;;;;;;6.13;3.67;;;;;;;21.05;54.03;93921.91;5007999;28;20191;-76
2022/06/13 08:44:20;;;;;;;5.03;3.40;;;;;;;21.14;53.57;93933.16;5007028;28;20030;-75
2022/06/13 08:47:02;;;;;;;4.35;3.90;;;;;;;21.11;53.52;93933.91;5006045;28;20049;-76
2022/06/13 08:49:43;;;;;;;4.22;3.72;;;;;;;20.92;51.56;93909.84;5007338;28;20037;-76
2022/06/13 08:52:17;;;;;;;7.13;4.28;;;;;;;21.27;52.98;93926.25;5007598;28;20102;-74
2022/06/13 08:54:47;;;;;;;5.25;4.72;;;;;;;20.83;52.81;93914.75;5008620;28;20235;-75
2022/06/13 08:57:12;;;;;;;6.28;4.05;;;;;;;20.52;54.46;93899.84;5006224;28;20499;-76
2022/06/13 08:59:55;;;;;;;4.38;3.75;;;;;;;20.49;53.84;93878.97;5007324;28;20409;-75
2022/06/13 09:02:32;;;;;;;5.40;4.00;;;;;;;21.20;54.12;93918.13;5005186;28;20052;-76
2022/06/13 09:05:03;;;;;;;4.93;3.72;;;;;;;21.15;53.46;93915.00;5007239;28;20116;-76
2022/06/13 09:07:38;;;;;;;5.18;3.85;;;;;;;20.81;53.85;93901.63;5006955;28;20038;-75
2022/06/13 09:10:25;;;;;;;6.35;4.50;;;;;;;20.90;54.13;93915.63;5015367;28;20537;-76
2022/06/13 09:13:00;;;;;;;6.10;4.43;;;;;;;20.81;54.56;93908.94;5006041;28;20129;-76
2022/06/13 09:15:33;;;;;;;6.20;3.80;;;;;;;20.74;54.55;93904.25;5005413;28;20041;-75
2022/06/13 09:18:41;;;;;;;4.43;4.03;;;;;;;20.45;54.85;93916.75;5004411;28;20046;-75
2022/06/13 09:21:19;;;;;;;4.95;3.97;;;;;;;20.48;55.41;93916.00;5007710;28;20046;-76
2022/06/13 09:24:06;;;;;;;5.20;3.92;;;;;;;20.59;54.99;93914.19;5004712;28;20606;-75
2022/06/13 09:26:45;;;;;;;6.30;4.38;;;;;;;20.44;55.29;93909.81;5007102;28;20496;-75
2022/06/13 09:29:19;;;;;;;5.50;4.32;;;;;;;20.37;54.65;93901.66;5008276;28;20158;-75
2022/06/13 09:31:54;;;;;;;5.20;4.20;;;;;;;20.51;54.62;93907.16;5008435;28;20535;-76
2022/06/13 09:34:31;;;;;;;4.40;3.80;;;;;;;20.57;54.72;93900.28;5007952;28;20034;-76
2022/06/13 09:37:07;;;;;;;6.43;4.25;;;;;;;20.31;53.89;93899.66;5003963;28;20031;-76
2022/06/13 09:39:33;;;;;;;5.45;4.93;;;;;;;20.68;54.38;93891.47;5002936;28;20136;-75
2022/06/13 09:42:10;;;;;;;6.13;4.32;;;;;;;20.90;54.03;93899.38;5007447;28;20631;-76
2022/06/13 09:44:51;;;;;;;7.13;4.47;;;;;;;21.03;56.36;93897.16;5004403;28;20522;-76
2022/06/13 09:47:28;;;;;;;6.20;4.22;;;;;;;21.23;53.73;93895.72;4985445;28;20779;-76
2022/06/13 09:50:12;;;;;;;6.38;3.80;;;;;;;21.29;54.51;93896.13;5005515;28;20042;-76
2022/06/13 09:52:41;;;;;;;6.65;4.68;;;;;;;21.27;52.80;93898.44;5006709;28;20030;-77
2022/06/13 09:55:15;;;;;;;5.43;4.40;;;;;;;21.01;53.19;93894.06;5006123;28;20121;-74
2022/06/13 09:58:07;;;;;;;7.68;4.88;;;;;;;21.08;53.47;93894.09;5003373;28;20029;-76
2022/06/13 10:00:44;;;;;;;8.70;4.60;;;;;;;21.06;52.80;93874.00;5002400;28;20064;-76
2022/06/13 10:03:21;;;;;;;5.88;4.60;;;;;;;21.18;52.77;93900.72;4997395;28;20095;-76
2022/06/13 10:06:17;;;;;;;4.88;4.30;;;;;;;21.35;51.72;93894.63;5008896;28;20049;-77
2022/06/13 10:09:06;;;;;;;6.97;4.65;;;;;;;21.25;52.29;93893.44;5005465;28;20547;-76
2022/06/13 10:11:50;;;;;;;7.55;4.65;;;;;;;20.98;52.87;93889.38;5004847;28;20152;-77
2022/06/13 10:14:22;;;;;;;8.13;5.07;;;;;;;21.03;53.63;93889.03;5011888;28;20033;-75
2022/06/13 10:17:08;;;;;;;4.78;4.25;;;;;;;21.07;52.13;93894.47;5005352;28;20052;-75
2022/06/13 10:19:56;;;;;;;6.30;5.35;;;;;;;21.11;52.14;93877.13;5008553;28;20449;-76
2022/06/13 10:22:43;;;;;;;7.45;4.63;;;;;;;21.08;51.80;93894.09;5000439;28;20161;-75
2022/06/13 10:25:12;;;;;;;7.45;4.65;;;;;;;21.22;52.44;93887.97;5002050;28;20493;-76
2022/06/13 10:28:05;;;;;;;5.88;4.82;;;;;;;21.73;51.43;93882.44;5003770;28;20040;-76
2022/06/13 10:30:33;;;;;;;6.72;4.57;;;;;;;21.87;51.60;93880.56;5012975;28;20573;-76
2022/06/13 10:33:21;;;;;;;4.75;4.30;;;;;;;21.58;51.64;93883.56;5005836;28;20040;-76
2022/06/13 10:35:52;;;;;;;5.35;4.57;;;;;;;21.31;51.31;93881.09;5008222;28;20049;-76
2022/06/13 10:38:44;;;;;;;5.90;4.95;;;;;;;21.28;51.80;93879.13;5006201;28;20092;-76
2022/06/13 10:41:10;;;;;;;5.50;4.50;;;;;;;21.57;50.89;93879.28;5003690;28;20045;-76
2022/06/13 10:43:37;;;;;;;5.63;5.07;;;;;;;21.97;51.00;93878.25;5005789;28;20045;-75
2022/06/13 10:46:06;;;;;;;6.45;5.22;;;;;;;22.07;50.28;93870.16;5002661;28;20021;-75
2022/06/13 10:49:13;;;;;;;5.57;4.85;;;;;;;21.93;49.15;93862.00;5005534;28;20046;-76
2022/06/13 10:51:40;;;;;;;7.40;5.63;;;;;;;22.08;50.19;93833.81;5004233;28;20037;-75
2022/06/13 10:54:18;;;;;;;5.88;4.65;;;;;;;22.41;49.55;93854.38;5005622;28;20049;-74
2022/06/13 10:56:51;;;;;;;8.73;5.05;;;;;;;22.30;50.74;93854.34;5008155;28;20045;-76
2022/06/13 10:59:37;;;;;;;9.30;4.68;;;;;;;22.18;49.33;93849.28;5001618;28;20117;-75
2022/06/13 11:02:20;;;;;;;4.68;4.10;;;;;;;22.38;48.55;93838.09;5003194;28;20418;-74
2022/06/13 11:04:45;;;;;;;5.35;4.40;;;;;;;22.53;48.94;93845.84;5000974;28;20111;-75
2022/06/13 11:07:18;;;;;;;5.95;5.00;;;;;;;22.37;48.61;93826.50;4999600;28;20463;-75
2022/06/13 11:09:55;;;;;;;6.20;5.07;;;;;;;22.07;48.10;93791.63;5018053;28;20030;-76
2022/06/13 11:12:27;;;;;;;6.15;4.97;;;;;;;22.35;48.00;93828.81;5000913;28;20057;-75
2022/06/13 11:23:20;;;;;;;8.45;4.75;;;;;;;22.28;48.09;93805.22;5000624;28;20143;-76
2022/06/13 11:25:56;;;;;;;10.32;4.93;;;;;;;22.28;49.28;93796.31;5002381;28;20135;-75
2022/06/13 11:28:24;;;;;;;7.38;5.10;;;;;;;22.52;48.63;93794.75;5007441;28;20029;-76
2022/06/13 11:31:01;;;;;;;7.28;5.13;;;;;;;22.65;49.13;93790.47;5008027;28;20086;-75
2022/06/13 11:33:37;;;;;;;5.95;4.70;;;;;;;22.52;49.39;93800.94;5010025;28;20025;-76
2022/06/13 11:36:22;;;;;;;6.15;5.00;;;;;;;22.50;48.31;93797.06;5008629;28;20037;-75
2022/06/13 11:39:05;;;;;;;7.70;5.25;;;;;;;22.44;46.70;93793.22;5021766;28;20091;-75
2022/06/13 11:41:36;;;;;;;7.72;5.50;;;;;;;22.68;46.54;93793.16;5004764;28;20061;-75
2022/06/13 11:44:13;;;;;;;7.57;6.10;;;;;;;22.64;46.98;93788.91;5001197;28;20409;-76
2022/06/13 11:46:53;;;;;;;5.07;4.55;;;;;;;22.71;47.81;93786.19;5003665;28;20052;-75
2022/06/13 11:49:41;;;;;;;6.68;5.72;;;;;;;22.91;47.54;93781.91;5007676;28;20033;-75
2022/06/13 11:52:09;;;;;;;7.95;5.47;;;;;;;23.12;46.62;93784.53;5005837;28;20068;-75
2022/06/13 11:54:46;;;;;;;5.72;4.78;;;;;;;23.09;47.12;93784.56;5008117;28;20104;-76
2022/06/13 11:57:18;;;;;;;9.30;6.97;;;;;;;23.35;51.09;93778.66;5008184;28;20042;-75
2022/06/13 12:00:08;;;;;;;7.35;5.53;;;;;;;23.12;48.08;93773.69;5007653;28;20109;-76
2022/06/13 12:02:51;;;;;;;8.07;5.30;;;;;;;23.01;47.21;93764.06;5006933;28;20172;-76
2022/06/13 12:05:36;;;;;;;6.05;5.32;;;;;;;22.92;46.70;93759.06;5008014;28;20049;-75
2022/06/13 12:08:13;;;;;;;7.55;6.03;;;;;;;22.90;48.35;93776.88;5010777;28;20057;-76
2022/06/13 12:10:41;;;;;;;8.13;5.82;;;;;;;22.71;46.27;93767.22;5010490;28;20543;-75
2022/06/13 12:13:15;;;;;;;6.63;5.47;;;;;;;23.11;45.65;93764.03;5007597;28;20332;-76
2022/06/13 12:15:50;;;;;;;5.50;4.97;;;;;;;23.21;46.20;93761.66;5010376;28;20885;-76
2022/06/13 12:18:18;;;;;;;7.32;5.45;;;;;;;23.35;45.27;93758.88;5008744;28;20038;-76
2022/06/13 12:20:56;;;;;;;8.07;5.57;;;;;;;23.34;44.99;93751.91;5010070;28;20326;-74
2022/06/13 12:23:41;;;;;;;7.25;5.22;;;;;;;23.14;46.08;93749.69;5005300;28;21349;-76
2022/06/13 12:26:22;;;;;;;6.05;5.25;;;;;;;22.62;46.38;93745.16;5007890;28;20528;-75